createdAt,value
2023-04-26T00:00:50.195Z,5.7525
2023-04-26T00:01:51.434Z,5.7549
2023-04-26T00:02:51.374Z,5.7572
2023-04-26T00:03:52.626Z,5.7674
2023-04-26T00:04:53.985Z,5.7749
2023-04-26T00:05:55.039Z,5.7792
2023-04-26T00:06:55.858Z,5.7821
2023-04-26T00:07:56.513Z,5.7862
2023-04-26T00:08:57.150Z,5.7581
2023-04-26T00:09:57.924Z,5.7515
2023-04-26T00:10:58.543Z,5.7394
2023-04-26T00:11:59.199Z,5.7424
2023-04-26T00:13:00.147Z,5.7629
2023-04-26T00:14:00.738Z,5.7746
2023-04-26T00:15:01.820Z,5.8243
2023-04-26T00:16:02.595Z,5.8302
2023-04-26T00:17:03.507Z,5.8577
2023-04-26T00:18:04.317Z,5.8695
2023-04-26T00:19:05.819Z,5.8617
2023-04-26T00:20:06.433Z,5.8610
2023-04-26T00:21:07.131Z,5.8559
2023-04-26T00:22:07.647Z,5.8362
2023-04-26T00:23:08.443Z,5.8405
2023-04-26T00:24:09.294Z,5.8447
2023-04-26T00:25:09.806Z,5.8479
2023-04-26T00:26:10.676Z,5.8577
2023-04-26T00:27:11.000Z,5.8625
2023-04-26T00:28:11.454Z,5.8820
2023-04-26T00:29:12.328Z,5.8660
2023-04-26T00:31:13.032Z,5.8801
2023-04-26T00:32:13.688Z,5.8793
2023-04-26T00:33:14.839Z,5.8852
2023-04-26T00:34:15.322Z,5.8896
2023-04-26T00:35:16.100Z,5.9052
2023-04-26T00:36:16.837Z,5.8767
2023-04-26T00:37:17.271Z,5.8470
2023-04-26T00:38:18.602Z,5.8353
2023-04-26T00:39:19.505Z,5.8620
2023-04-26T00:40:19.731Z,5.8845
2023-04-26T00:41:19.800Z,5.9129
2023-04-26T00:42:21.493Z,5.9146
2023-04-26T00:43:21.871Z,5.9062
2023-04-26T00:44:24.422Z,5.9098
2023-04-26T00:46:24.728Z,5.9060
2023-04-26T00:47:25.405Z,5.9054
2023-04-26T00:48:26.205Z,5.9046
2023-04-26T00:49:26.723Z,5.9011
2023-04-26T00:50:27.526Z,5.8953
2023-04-26T00:51:28.138Z,5.8944
2023-04-26T00:52:28.870Z,5.8956
2023-04-26T00:53:29.664Z,5.8956
2023-04-26T00:54:30.211Z,5.8773
2023-04-26T00:55:32.310Z,5.8573
2023-04-26T00:57:32.175Z,5.8317
2023-04-26T00:58:32.310Z,5.8098
2023-04-26T00:59:35.110Z,5.8007
2023-04-26T01:00:35.601Z,5.8039
2023-04-26T01:01:36.130Z,5.8112
2023-04-26T01:02:36.745Z,5.8219
2023-04-26T01:03:37.505Z,5.8338
2023-04-26T01:04:38.158Z,5.8488
2023-04-26T01:05:39.867Z,5.8591
2023-04-26T01:06:39.835Z,5.8638
2023-04-26T01:07:40.433Z,5.8610
2023-04-26T01:08:41.095Z,5.8553
2023-04-26T01:09:41.929Z,5.8587
2023-04-26T01:10:42.752Z,5.8469
2023-04-26T01:11:43.608Z,5.8480
2023-04-26T01:12:44.296Z,5.8467
2023-04-26T01:13:44.879Z,5.8380
2023-04-26T01:14:45.253Z,5.8303
2023-04-26T01:15:45.991Z,5.8387
2023-04-26T01:16:47.128Z,5.8469
2023-04-26T01:17:48.321Z,5.8475
2023-04-26T01:18:49.221Z,5.8342
2023-04-26T01:19:48.687Z,5.8338
2023-04-26T01:20:48.659Z,5.8368
2023-04-26T01:21:52.254Z,5.7787
2023-04-26T01:22:52.349Z,5.7438
2023-04-26T01:23:52.599Z,5.7723
2023-04-26T01:24:52.844Z,5.8057
2023-04-26T01:25:53.557Z,5.7995
2023-04-26T01:26:53.840Z,5.7962
2023-04-26T01:27:54.335Z,5.7873
2023-04-26T01:29:54.657Z,5.7175
2023-04-26T01:30:55.473Z,5.7158
2023-04-26T01:31:56.408Z,5.7142
2023-04-26T01:32:57.206Z,5.7038
2023-04-26T01:33:57.985Z,5.6656
2023-04-26T01:34:58.654Z,5.6606
2023-04-26T01:35:59.392Z,5.6268
2023-04-26T01:37:00.302Z,5.6049
2023-04-26T01:38:00.851Z,5.5763
2023-04-26T01:39:01.528Z,5.5455
2023-04-26T01:40:02.327Z,5.5109
2023-04-26T01:41:02.912Z,5.5035
2023-04-26T01:42:03.721Z,5.4846
2023-04-26T01:43:04.330Z,5.4533
2023-04-26T01:44:05.312Z,5.4295
2023-04-26T01:45:06.117Z,5.4090
2023-04-26T01:46:06.871Z,5.3889
2023-04-26T01:47:07.080Z,5.3636
2023-04-26T01:48:08.124Z,5.3442
2023-04-26T01:49:08.392Z,5.3343
2023-04-26T01:50:08.630Z,5.3139
2023-04-26T01:51:10.344Z,5.2781
2023-04-26T01:52:09.944Z,5.2511
2023-04-26T01:53:10.649Z,5.2400
2023-04-26T01:54:11.480Z,5.2343
2023-04-26T01:55:12.271Z,5.2265
2023-04-26T01:56:12.975Z,5.2359
2023-04-26T01:57:13.692Z,5.2273
2023-04-26T01:58:14.214Z,5.2085
2023-04-26T01:59:15.381Z,5.1925
2023-04-26T02:00:15.968Z,5.1819
2023-04-26T02:01:16.619Z,5.1757
2023-04-26T02:02:17.676Z,5.1638
2023-04-26T02:03:17.917Z,5.1565
2023-04-26T02:04:18.732Z,5.1386
2023-04-26T02:05:19.534Z,5.1247
2023-04-26T02:06:20.637Z,5.1080
2023-04-26T02:07:21.423Z,5.0891
2023-04-26T02:08:22.145Z,5.0783
2023-04-26T02:09:23.218Z,5.0784
2023-04-26T02:10:24.027Z,5.0793
2023-04-26T02:11:24.494Z,5.0887
2023-04-26T02:12:25.695Z,5.1088
2023-04-26T02:13:26.807Z,5.0975
2023-04-26T02:14:26.500Z,5.1203
2023-04-26T02:15:27.201Z,5.1369
2023-04-26T02:16:28.703Z,5.1416
2023-04-26T02:17:29.634Z,5.1287
2023-04-26T02:18:30.924Z,5.0905
2023-04-26T02:19:31.379Z,5.0677
2023-04-26T02:20:32.026Z,5.0597
2023-04-26T02:21:32.343Z,5.0551
2023-04-26T02:22:33.051Z,5.0506
2023-04-26T02:23:33.740Z,5.0538
2023-04-26T02:24:34.239Z,5.0634
2023-04-26T02:25:35.418Z,5.0724
2023-04-26T02:26:35.344Z,5.0718
2023-04-26T02:27:36.670Z,5.0773
2023-04-26T02:28:37.560Z,5.0727
2023-04-26T02:30:38.498Z,5.0925
2023-04-26T02:31:39.520Z,5.0784
2023-04-26T02:32:39.648Z,5.0493
2023-04-26T02:33:40.213Z,5.0407
2023-04-26T02:34:41.082Z,5.0347
2023-04-26T02:35:41.085Z,5.0244
2023-04-26T02:36:41.629Z,5.0093
2023-04-26T02:37:42.108Z,5.0069
2023-04-26T02:38:42.568Z,5.0015
2023-04-26T02:39:43.664Z,5.0048
2023-04-26T02:40:45.020Z,4.9967
2023-04-26T02:41:49.112Z,4.9985
2023-04-26T02:43:48.401Z,4.9705
2023-04-26T02:44:49.074Z,4.9609
2023-04-26T02:45:49.788Z,4.9526
2023-04-26T02:46:50.372Z,5.0157
2023-04-26T02:47:51.675Z,5.0603
2023-04-26T02:48:51.947Z,5.1212
2023-04-26T02:49:53.609Z,5.1143
2023-04-26T02:51:55.798Z,5.1250
2023-04-26T02:53:55.708Z,5.1386
2023-04-26T02:54:57.125Z,5.1340
2023-04-26T02:56:08.052Z,5.1404
2023-04-26T02:57:09.240Z,5.1504
2023-04-26T02:58:10.464Z,5.1843
2023-04-26T02:59:11.278Z,5.2141
2023-04-26T03:01:14.476Z,5.2400
2023-04-26T03:02:15.937Z,5.2591
2023-04-26T03:04:16.127Z,5.2835
2023-04-26T03:05:15.777Z,5.2773
2023-04-26T03:06:17.069Z,5.2616
2023-04-26T03:07:17.804Z,5.2710
2023-04-26T03:08:19.079Z,5.2790
2023-04-26T03:09:19.636Z,5.2835
2023-04-26T03:10:20.430Z,5.2797
2023-04-26T03:11:21.145Z,5.2790
2023-04-26T03:12:21.783Z,5.2519
2023-04-26T03:13:22.657Z,5.2425
2023-04-26T03:14:23.419Z,5.2387
2023-04-26T03:15:24.150Z,5.2503
2023-04-26T03:16:25.070Z,5.2687
2023-04-26T03:17:26.225Z,5.2913
2023-04-26T03:18:26.420Z,5.3150
2023-04-26T03:19:27.404Z,5.3356
2023-04-26T03:20:28.519Z,5.3460
2023-04-26T03:21:29.372Z,5.3486
2023-04-26T03:22:29.862Z,5.3344
2023-04-26T03:23:30.723Z,5.3258
2023-04-26T03:24:31.167Z,5.3039
2023-04-26T03:25:32.966Z,5.3107
2023-04-26T03:26:33.236Z,5.3183
2023-04-26T03:27:33.181Z,5.3066
2023-04-26T03:28:33.236Z,5.3103
2023-04-26T03:29:33.768Z,5.3183
2023-04-26T03:30:34.480Z,5.3236
2023-04-26T03:31:35.207Z,5.3497
2023-04-26T03:32:35.247Z,5.3643
2023-04-26T03:33:35.913Z,5.3811
2023-04-26T03:34:36.860Z,5.3859
2023-04-26T03:35:37.722Z,5.3808
2023-04-26T03:36:38.431Z,5.3912
2023-04-26T03:37:39.132Z,5.3990
2023-04-26T03:38:39.225Z,5.3321
2023-04-26T03:39:39.985Z,5.2910
2023-04-26T03:40:40.842Z,5.2780
2023-04-26T03:41:41.742Z,5.2577
2023-04-26T03:42:42.735Z,5.2603
2023-04-26T03:43:43.753Z,5.2704
2023-04-26T03:44:44.765Z,5.2941
2023-04-26T03:46:46.332Z,5.2992
2023-04-26T03:47:47.585Z,5.3023
2023-04-26T03:51:09.841Z,5.3162
2023-04-26T03:51:49.544Z,5.2765
2023-04-26T03:52:50.360Z,5.2555
2023-04-26T03:53:50.661Z,5.2239
2023-04-26T03:55:10.892Z,5.2133
2023-04-26T03:55:51.638Z,5.1894
2023-04-26T03:56:51.550Z,5.1767
2023-04-26T03:57:52.393Z,5.1512
2023-04-26T03:58:53.794Z,5.0451
2023-04-26T03:59:55.121Z,5.0290
2023-04-26T04:01:55.839Z,5.0202
2023-04-26T04:02:56.152Z,5.0167
2023-04-26T04:03:56.724Z,5.0139
2023-04-26T04:06:57.850Z,5.0084
2023-04-26T04:07:57.640Z,5.0098
2023-04-26T04:08:58.933Z,5.0052
2023-04-26T04:10:00.677Z,5.0068
2023-04-26T04:11:00.216Z,4.9899
2023-04-26T04:12:01.344Z,4.9663
2023-04-26T04:13:02.399Z,4.9840
2023-04-26T04:14:02.635Z,4.9907
2023-04-26T04:15:03.096Z,5.0071
2023-04-26T04:16:05.169Z,5.0199
2023-04-26T04:17:04.352Z,5.0370
2023-04-26T04:18:06.196Z,5.0408
2023-04-26T04:19:07.452Z,5.0445
2023-04-26T04:20:07.036Z,5.0536
2023-04-26T04:21:07.790Z,5.0381
2023-04-26T04:22:08.514Z,4.9963
2023-04-26T04:23:09.280Z,4.9433
2023-04-26T04:24:10.633Z,4.9316
2023-04-26T04:25:11.746Z,4.9702
2023-04-26T04:26:12.361Z,5.0068
2023-04-26T04:27:12.993Z,5.0236
2023-04-26T04:28:13.245Z,5.0370
2023-04-26T04:29:14.890Z,5.0586
2023-04-26T04:31:15.815Z,5.0950
2023-04-26T04:32:16.539Z,5.1135
2023-04-26T04:33:16.718Z,5.1099
2023-04-26T04:34:17.845Z,5.0810
2023-04-26T04:36:18.474Z,5.1325
2023-04-26T04:37:18.832Z,5.1291
2023-04-26T04:38:20.064Z,5.1473
2023-04-26T04:39:21.007Z,5.1621
2023-04-26T04:40:21.340Z,5.1640
2023-04-26T04:41:43.477Z,5.1714
2023-04-26T04:42:21.882Z,5.1977
2023-04-26T04:43:23.459Z,5.2117
2023-04-26T04:44:24.559Z,5.2364
2023-04-26T04:45:25.098Z,5.2539
2023-04-26T04:46:25.900Z,5.2753
2023-04-26T04:47:28.514Z,5.2724
2023-04-26T04:50:29.404Z,5.3025
2023-04-26T04:52:28.822Z,5.2854
2023-04-26T04:53:29.388Z,5.3053
2023-04-26T04:54:31.138Z,5.3237
2023-04-26T04:55:30.823Z,5.3497
2023-04-26T04:56:32.046Z,5.3454
2023-04-26T04:58:32.395Z,5.3750
2023-04-26T04:59:33.364Z,5.3579
2023-04-26T05:00:35.026Z,5.3410
2023-04-26T05:01:36.184Z,5.3051
2023-04-26T05:02:36.568Z,5.3263
2023-04-26T05:03:38.000Z,5.3556
2023-04-26T05:04:38.226Z,5.3886
2023-04-26T05:05:38.344Z,5.4149
2023-04-26T05:06:39.380Z,5.4266
2023-04-26T05:07:40.026Z,5.4361
2023-04-26T05:08:41.169Z,5.4426
2023-04-26T05:09:42.735Z,5.4303
2023-04-26T05:10:42.872Z,5.4208
2023-04-26T05:11:43.988Z,5.4484
2023-04-26T05:19:53.371Z,5.4612
2023-04-26T05:20:54.137Z,5.4778
2023-04-26T05:21:55.349Z,5.5026
2023-04-26T05:22:56.022Z,5.5249
2023-04-26T05:23:56.226Z,5.5132
2023-04-26T05:24:57.285Z,5.5189
2023-04-26T05:25:57.929Z,5.5350
2023-04-26T05:26:58.636Z,5.5340
2023-04-26T05:27:59.198Z,5.5284
2023-04-26T05:29:00.121Z,5.5429
2023-04-26T05:30:00.811Z,5.5068
2023-04-26T05:31:01.995Z,5.5162
2023-04-26T05:32:03.244Z,5.4803
2023-04-26T05:33:03.264Z,5.5007
2023-04-26T05:34:03.910Z,5.5198
2023-04-26T05:35:04.505Z,5.5258
2023-04-26T05:36:04.851Z,5.5275
2023-04-26T05:37:05.281Z,5.5547
2023-04-26T05:38:06.042Z,5.4813
2023-04-26T05:39:06.618Z,5.4486
2023-04-26T05:40:07.633Z,5.4000
2023-04-26T05:41:08.322Z,5.3811
2023-04-26T05:42:08.661Z,5.2532
2023-04-26T05:43:09.702Z,5.2054
2023-04-26T05:44:10.279Z,5.2813
2023-04-26T05:45:10.997Z,5.3464
2023-04-26T05:46:12.149Z,5.2879
2023-04-26T05:47:13.428Z,5.3650
2023-04-26T05:48:14.266Z,5.4571
2023-04-26T05:49:14.964Z,5.4999
2023-04-26T05:50:15.549Z,5.5423
2023-04-26T05:51:16.682Z,5.5950
2023-04-26T05:52:17.321Z,5.5817
2023-04-26T05:53:17.808Z,5.6109
2023-04-26T05:54:18.198Z,5.6078
2023-04-26T05:55:18.874Z,5.4374
2023-04-26T05:56:19.549Z,5.3725
2023-04-26T05:57:19.782Z,5.3358
2023-04-26T05:58:20.341Z,5.3511
2023-04-26T05:59:21.175Z,5.3791
2023-04-26T06:00:21.906Z,5.4501
2023-04-26T06:01:22.714Z,5.4963
2023-04-26T06:02:24.217Z,5.4638
2023-04-26T06:03:24.265Z,5.3889
2023-04-26T06:04:25.156Z,5.3096
2023-04-26T06:05:25.178Z,5.3363
2023-04-26T06:06:25.851Z,5.2727
2023-04-26T06:07:26.465Z,5.2101
2023-04-26T06:08:27.077Z,5.2211
2023-04-26T06:09:27.238Z,5.2467
2023-04-26T06:10:28.036Z,5.3525
2023-04-26T06:11:28.757Z,5.4308
2023-04-26T06:12:29.513Z,5.5472
2023-04-26T06:13:30.237Z,5.6382
2023-04-26T06:14:31.119Z,5.7214
2023-04-26T06:15:32.163Z,5.7348
2023-04-26T06:16:32.942Z,5.6534
2023-04-26T06:17:34.155Z,5.6030
2023-04-26T06:18:35.165Z,5.6609
2023-04-26T06:19:35.721Z,5.6345
2023-04-26T06:20:36.494Z,5.5902
2023-04-26T06:21:37.319Z,5.5943
2023-04-26T06:22:37.981Z,5.6404
2023-04-26T06:23:39.215Z,5.6367
2023-04-26T06:24:39.798Z,5.5278
2023-04-26T06:25:40.607Z,5.4862
2023-04-26T06:26:41.530Z,5.4798
2023-04-26T06:27:42.153Z,5.4629
2023-04-26T06:28:42.896Z,5.5079
2023-04-26T06:29:43.728Z,5.5651
2023-04-26T06:30:44.637Z,5.5442
2023-04-26T06:31:45.633Z,5.5296
2023-04-26T06:32:46.762Z,5.6548
2023-04-26T06:33:47.419Z,5.7564
2023-04-26T06:34:48.607Z,5.8175
2023-04-26T06:35:49.107Z,5.8698
2023-04-26T06:36:49.760Z,5.9064
2023-04-26T06:37:50.939Z,5.8600
2023-04-26T06:38:51.520Z,5.9387
2023-04-26T06:39:52.329Z,5.9994
2023-04-26T06:40:53.206Z,6.0218
2023-04-26T06:41:53.757Z,6.0825
2023-04-26T06:42:54.476Z,6.1671
2023-04-26T06:43:55.412Z,6.1840
2023-04-26T06:44:55.232Z,6.2570
2023-04-26T06:45:55.203Z,6.2998
2023-04-26T06:46:56.032Z,6.2547
2023-04-26T06:47:57.191Z,6.1904
2023-04-26T06:48:57.984Z,6.1576
2023-04-26T06:49:58.639Z,6.2516
2023-04-26T06:50:59.298Z,6.2445
2023-04-26T06:51:59.936Z,6.3337
2023-04-26T06:53:01.185Z,6.3174
2023-04-26T06:54:01.914Z,6.1675
2023-04-26T06:55:03.427Z,6.0615
2023-04-26T06:56:04.019Z,6.0334
2023-04-26T06:57:04.634Z,6.1170
2023-04-26T06:58:05.130Z,6.1928
2023-04-26T06:59:05.838Z,6.2367
2023-04-26T07:00:06.563Z,6.2738
2023-04-26T07:01:07.033Z,6.0758
2023-04-26T07:02:08.136Z,5.9752
2023-04-26T07:03:08.707Z,5.9098
2023-04-26T07:04:09.964Z,6.0416
2023-04-26T07:05:11.019Z,5.9947
2023-04-26T07:06:12.252Z,5.9880
2023-04-26T07:07:13.762Z,6.1039
2023-04-26T07:08:13.420Z,6.0283
2023-04-26T07:09:14.100Z,6.0303
2023-04-26T07:10:14.796Z,6.0662
2023-04-26T07:11:15.473Z,5.9773
2023-04-26T07:12:16.464Z,5.8813
2023-04-26T07:13:17.090Z,5.8174
2023-04-26T07:14:17.764Z,5.8374
2023-04-26T07:15:18.731Z,5.9173
2023-04-26T07:16:19.483Z,6.0407
2023-04-26T07:17:20.418Z,6.1799
2023-04-26T07:18:21.276Z,6.2765
2023-04-26T07:19:21.935Z,6.0230
2023-04-26T07:20:22.498Z,6.1395
2023-04-26T07:21:23.231Z,6.1918
2023-04-26T07:22:23.855Z,6.2069
2023-04-26T07:23:24.580Z,6.2564
2023-04-26T07:24:25.297Z,6.3289
2023-04-26T07:25:25.747Z,6.2606
2023-04-26T07:26:26.658Z,6.2680
2023-04-26T07:27:26.403Z,6.2596
2023-04-26T07:28:26.877Z,6.2821
2023-04-26T07:29:27.614Z,6.4282
2023-04-26T07:30:28.459Z,6.5621
2023-04-26T07:31:28.786Z,6.4984
2023-04-26T07:32:29.740Z,6.5299
2023-04-26T07:33:31.662Z,6.6267
2023-04-26T07:34:31.931Z,6.5705
2023-04-26T07:35:32.901Z,6.5688
2023-04-26T07:36:33.299Z,6.5660
2023-04-26T07:37:33.775Z,6.6481
2023-04-26T07:38:34.359Z,6.7927
2023-04-26T07:39:34.815Z,6.9193
2023-04-26T07:40:35.770Z,6.8825
2023-04-26T07:41:36.683Z,6.9082
2023-04-26T07:42:37.834Z,7.0802
2023-04-26T07:43:38.633Z,7.2115
2023-04-26T07:44:39.081Z,7.3257
2023-04-26T07:45:39.819Z,7.3349
2023-04-26T07:46:40.885Z,7.1911
2023-04-26T07:47:41.374Z,7.1340
2023-04-26T07:48:42.125Z,7.2231
2023-04-26T07:49:42.677Z,7.1726
2023-04-26T07:50:43.309Z,7.0689
2023-04-26T07:51:44.082Z,6.9601
2023-04-26T07:52:44.534Z,6.9718
2023-04-26T07:53:45.188Z,7.0318
2023-04-26T07:54:45.442Z,7.0233
2023-04-26T07:55:45.927Z,6.9397
2023-04-26T07:56:46.682Z,7.0418
2023-04-26T07:57:47.193Z,6.9544
2023-04-26T07:58:47.881Z,6.9511
2023-04-26T07:59:48.660Z,6.8199
2023-04-26T08:00:49.116Z,6.5782
2023-04-26T08:01:49.852Z,6.4220
2023-04-26T08:02:50.947Z,6.4251
2023-04-26T08:03:51.381Z,6.5007
2023-04-26T08:04:52.463Z,6.5514
2023-04-26T08:05:53.369Z,6.5772
2023-04-26T08:06:53.328Z,6.6441
2023-04-26T08:07:53.868Z,6.6119
2023-04-26T08:08:54.585Z,6.6403
2023-04-26T08:09:55.507Z,6.6467
2023-04-26T08:10:56.042Z,6.6756
2023-04-26T08:11:56.895Z,6.6267
2023-04-26T08:12:57.632Z,6.6906
2023-04-26T08:13:57.892Z,6.7789
2023-04-26T08:14:58.509Z,6.7987
2023-04-26T08:15:59.437Z,6.7676
2023-04-26T08:17:00.269Z,6.9151
2023-04-26T08:18:00.476Z,6.9156
2023-04-26T08:19:01.422Z,6.8898
2023-04-26T08:20:02.203Z,6.8923
2023-04-26T08:21:02.807Z,6.8739
2023-04-26T08:22:03.438Z,6.9344
2023-04-26T08:23:04.169Z,6.9075
2023-04-26T08:24:05.335Z,6.9469
2023-04-26T08:25:06.092Z,7.0136
2023-04-26T08:26:06.796Z,7.1035
2023-04-26T08:27:07.350Z,7.2377
2023-04-26T08:28:08.132Z,7.2312
2023-04-26T08:29:08.812Z,7.2519
2023-04-26T08:30:09.702Z,7.2974
2023-04-26T08:31:09.948Z,7.3336
2023-04-26T08:32:10.843Z,7.2119
2023-04-26T08:33:11.908Z,7.1601
2023-04-26T08:34:12.656Z,7.1677
2023-04-26T08:35:13.164Z,7.2007
2023-04-26T08:36:13.821Z,7.2190
2023-04-26T08:37:14.261Z,7.1925
2023-04-26T08:38:14.915Z,7.3181
2023-04-26T08:39:15.675Z,7.2747
2023-04-26T08:40:16.338Z,7.2509
2023-04-26T08:41:17.057Z,7.3289
2023-04-26T08:42:17.730Z,7.3809
2023-04-26T08:43:18.367Z,7.4350
2023-04-26T08:44:19.062Z,7.4304
2023-04-26T08:45:19.551Z,7.4794
2023-04-26T08:46:20.272Z,7.5170
2023-04-26T08:47:21.133Z,7.6152
2023-04-26T08:48:22.344Z,7.5306
2023-04-26T08:49:23.042Z,7.5129
2023-04-26T08:50:23.811Z,7.5186
2023-04-26T08:51:24.364Z,7.4848
2023-04-26T08:52:24.725Z,7.5265
2023-04-26T08:53:25.270Z,7.4696
2023-04-26T08:54:26.042Z,7.5314
2023-04-26T08:55:26.677Z,7.5750
2023-04-26T08:56:27.138Z,7.6004
2023-04-26T08:57:27.879Z,7.6171
2023-04-26T08:58:28.573Z,7.6227
2023-04-26T08:59:29.039Z,7.6292
2023-04-26T09:00:29.772Z,7.5686
2023-04-26T09:01:30.337Z,7.4580
2023-04-26T09:02:31.102Z,7.5345
2023-04-26T09:03:31.658Z,7.5442
2023-04-26T09:04:32.503Z,7.6473
2023-04-26T09:05:33.268Z,7.8970
2023-04-26T09:06:34.258Z,8.2334
2023-04-26T09:07:34.944Z,8.2293
2023-04-26T09:08:35.627Z,8.0936
2023-04-26T09:09:36.615Z,8.0415
2023-04-26T09:10:37.427Z,8.0393
2023-04-26T09:11:38.128Z,8.0438
2023-04-26T09:12:38.696Z,8.1192
2023-04-26T09:13:39.452Z,8.0909
2023-04-26T09:14:39.985Z,8.1045
2023-04-26T09:15:40.810Z,8.0963
2023-04-26T09:16:42.031Z,8.3142
2023-04-26T09:17:42.864Z,8.3981
2023-04-26T09:18:44.152Z,8.4478
2023-04-26T09:19:44.933Z,8.5350
2023-04-26T09:20:45.271Z,8.4571
2023-04-26T09:21:45.993Z,8.4662
2023-04-26T09:22:46.701Z,8.5067
2023-04-26T09:23:47.279Z,8.4979
2023-04-26T09:24:48.035Z,8.5528
2023-04-26T09:25:48.579Z,8.6212
2023-04-26T09:26:49.326Z,8.5234
2023-04-26T09:27:49.966Z,8.7843
2023-04-26T09:28:50.663Z,8.7269
2023-04-26T09:29:51.027Z,8.7862
2023-04-26T09:30:51.512Z,8.7132
2023-04-26T09:31:52.943Z,8.8486
2023-04-26T09:32:53.834Z,9.0525
2023-04-26T09:33:54.903Z,9.3302
2023-04-26T09:34:55.530Z,9.4609
2023-04-26T09:35:56.142Z,9.4719
2023-04-26T09:36:56.625Z,9.3495
2023-04-26T09:38:01.123Z,9.2132
2023-04-26T09:38:58.552Z,9.3559
2023-04-26T09:39:59.247Z,9.5104
2023-04-26T09:40:59.967Z,9.5964
2023-04-26T09:42:00.446Z,9.6393
2023-04-26T09:43:01.162Z,9.6387
2023-04-26T09:44:01.997Z,9.6533
2023-04-26T09:45:02.651Z,9.6596
2023-04-26T09:46:03.384Z,9.5418
2023-04-26T09:47:04.382Z,9.3367
2023-04-26T09:48:04.306Z,9.3702
2023-04-26T09:49:04.453Z,9.6178
2023-04-26T09:50:05.137Z,9.7204
2023-04-26T09:51:05.901Z,9.8211
2023-04-26T09:52:06.606Z,9.8229
2023-04-26T09:53:07.083Z,9.9075
2023-04-26T09:54:07.740Z,9.8076
2023-04-26T09:55:09.177Z,9.5824
2023-04-26T09:56:08.556Z,9.5941
2023-04-26T09:57:09.450Z,9.7294
2023-04-26T09:58:09.953Z,9.6836
2023-04-26T09:59:10.171Z,9.6542
2023-04-26T10:00:10.806Z,9.6349
2023-04-26T10:01:11.458Z,9.6050
2023-04-26T10:02:12.368Z,9.5746
2023-04-26T10:03:14.173Z,9.4677
2023-04-26T10:04:14.545Z,9.2682
2023-04-26T10:05:15.506Z,9.3331
2023-04-26T10:06:16.181Z,9.3449
2023-04-26T10:07:16.638Z,9.4927
2023-04-26T10:08:17.388Z,9.4833
2023-04-26T10:09:18.500Z,9.5314
2023-04-26T10:10:19.273Z,9.4958
2023-04-26T10:11:20.025Z,9.5379
2023-04-26T10:12:20.763Z,9.3953
2023-04-26T10:13:21.434Z,9.4895
2023-04-26T10:14:22.187Z,9.5770
2023-04-26T10:15:22.752Z,9.6457
2023-04-26T10:16:23.510Z,9.5236
2023-04-26T10:17:24.354Z,9.5789
2023-04-26T10:18:25.156Z,9.5774
2023-04-26T10:19:25.986Z,9.5880
2023-04-26T10:20:26.689Z,9.7330
2023-04-26T10:21:27.438Z,9.9119
2023-04-26T10:22:28.082Z,9.9128
2023-04-26T10:23:28.588Z,9.6708
2023-04-26T10:24:29.433Z,9.8360
2023-04-26T10:25:29.990Z,9.9828
2023-04-26T10:26:30.667Z,10.0511
2023-04-26T10:27:31.393Z,10.1894
2023-04-26T10:28:32.001Z,10.2560
2023-04-26T10:29:32.635Z,10.2870
2023-04-26T10:30:33.401Z,10.3014
2023-04-26T10:31:34.152Z,10.2546
2023-04-26T10:32:35.162Z,10.5800
2023-04-26T10:33:36.479Z,10.5497
2023-04-26T10:34:37.064Z,10.5056
2023-04-26T10:35:37.924Z,10.5364
2023-04-26T10:36:38.387Z,10.5223
2023-04-26T10:37:39.004Z,10.6388
2023-04-26T10:38:39.960Z,10.8694
2023-04-26T10:40:45.821Z,11.3614
2023-04-26T10:41:46.796Z,11.5339
2023-04-26T10:42:47.786Z,11.6169
2023-04-26T10:43:48.507Z,11.6643
2023-04-26T10:44:49.623Z,11.2838
2023-04-26T10:45:50.407Z,11.2156
2023-04-26T10:47:51.131Z,11.2655
2023-04-26T10:48:52.088Z,11.3904
2023-04-26T10:49:52.250Z,11.6252
2023-04-26T10:50:52.882Z,11.5871
2023-04-26T10:51:53.585Z,11.5776
2023-04-26T10:52:54.128Z,11.4386
2023-04-26T10:53:55.570Z,11.3609
2023-04-26T10:54:55.467Z,11.4580
2023-04-26T10:55:56.088Z,11.6476
2023-04-26T10:56:56.785Z,11.5767
2023-04-26T10:57:57.610Z,11.6095
2023-04-26T10:58:58.237Z,11.7478
2023-04-26T10:59:59.064Z,11.6884
2023-04-26T11:01:00.091Z,11.7517
2023-04-26T11:02:00.151Z,11.5693
2023-04-26T11:03:01.301Z,11.4449
2023-04-26T11:04:02.537Z,11.4065
2023-04-26T11:05:03.578Z,11.5504
2023-04-26T11:06:04.196Z,11.5749
2023-04-26T11:07:05.197Z,11.5868
2023-04-26T11:08:05.722Z,11.6678
2023-04-26T11:09:06.754Z,11.6275
2023-04-26T11:10:07.534Z,11.7043
2023-04-26T11:11:08.025Z,11.3616
2023-04-26T11:12:08.645Z,11.2505
2023-04-26T11:13:09.311Z,11.2945
2023-04-26T11:14:09.923Z,11.2179
2023-04-26T11:15:10.663Z,11.2296
2023-04-26T11:16:11.592Z,11.1419
2023-04-26T11:17:12.646Z,11.0206
2023-04-26T11:18:13.529Z,10.7914
2023-04-26T11:19:14.196Z,10.7569
2023-04-26T11:20:14.982Z,10.9681
2023-04-26T11:21:15.797Z,11.1532
2023-04-26T11:22:16.606Z,11.2961
2023-04-26T11:23:17.237Z,11.4064
2023-04-26T11:24:17.695Z,11.5008
2023-04-26T11:25:18.365Z,11.6487
2023-04-26T11:26:19.084Z,11.8524
2023-04-26T11:27:19.562Z,12.2241
2023-04-26T11:28:20.333Z,12.2018
2023-04-26T11:29:20.816Z,12.0682
2023-04-26T11:30:21.460Z,12.1186
2023-04-26T11:31:22.819Z,12.2181
2023-04-26T11:32:23.853Z,12.1608
2023-04-26T11:33:24.817Z,12.1431
2023-04-26T11:34:25.450Z,12.3555
2023-04-26T11:35:25.942Z,12.5495
2023-04-26T11:36:26.585Z,12.6171
2023-04-26T11:37:27.048Z,12.6710
2023-04-26T11:38:27.628Z,12.6362
2023-04-26T11:39:28.712Z,12.5513
2023-04-26T11:40:29.216Z,12.7128
2023-04-26T11:41:29.920Z,12.7287
2023-04-26T11:42:30.625Z,12.6549
2023-04-26T11:43:31.260Z,12.6998
2023-04-26T11:44:32.459Z,12.7361
2023-04-26T11:45:32.987Z,12.8495
2023-04-26T11:46:33.734Z,12.7727
2023-04-26T11:47:34.634Z,13.0156
2023-04-26T11:48:35.419Z,12.7329
2023-04-26T11:49:36.245Z,12.6638
2023-04-26T11:50:36.932Z,12.6814
2023-04-26T11:51:37.673Z,12.5602
2023-04-26T11:52:38.255Z,12.3339
2023-04-26T11:53:38.747Z,12.5029
2023-04-26T11:54:39.731Z,12.5395
2023-04-26T11:55:40.446Z,12.6876
2023-04-26T11:56:41.018Z,12.9658
2023-04-26T11:57:41.810Z,13.2066
2023-04-26T11:58:42.808Z,13.4063
2023-04-26T11:59:43.944Z,13.5862
2023-04-26T12:00:43.769Z,13.7554
2023-04-26T12:01:44.691Z,13.8365
2023-04-26T12:02:46.015Z,13.6645
2023-04-26T12:03:47.354Z,13.4416
2023-04-26T12:04:47.987Z,13.7048
2023-04-26T12:05:48.268Z,13.9157
2023-04-26T12:06:49.286Z,13.9915
2023-04-26T12:07:50.266Z,13.7193
2023-04-26T12:08:51.506Z,13.5823
2023-04-26T12:09:52.092Z,12.9846
2023-04-26T12:10:52.273Z,12.7115
2023-04-26T12:11:52.738Z,12.4790
2023-04-26T12:12:53.909Z,12.4918
2023-04-26T12:13:54.632Z,12.4211
2023-04-26T12:14:55.274Z,12.3476
2023-04-26T12:15:55.399Z,12.2305
2023-04-26T12:16:55.861Z,12.2036
2023-04-26T12:17:56.242Z,12.2628
2023-04-26T12:18:56.283Z,12.4169
2023-04-26T12:19:57.129Z,12.7082
2023-04-26T12:20:57.981Z,12.7401
2023-04-26T12:21:58.013Z,12.8038
2023-04-26T12:22:58.837Z,12.9346
2023-04-26T12:23:59.588Z,13.0305
2023-04-26T12:25:00.485Z,13.0651
2023-04-26T12:26:01.257Z,13.0222
2023-04-26T12:27:02.668Z,12.9377
2023-04-26T12:28:02.550Z,12.8837
2023-04-26T12:29:03.468Z,13.0297
2023-04-26T12:30:04.205Z,13.0462
2023-04-26T12:31:05.060Z,13.1818
2023-04-26T12:32:05.650Z,13.3571
2023-04-26T12:33:16.400Z,13.4509
2023-04-26T12:34:06.437Z,13.2747
2023-04-26T12:35:07.131Z,12.8689
2023-04-26T12:36:07.812Z,12.7993
2023-04-26T12:37:08.353Z,12.8769
2023-04-26T12:38:09.003Z,13.1783
2023-04-26T12:39:09.487Z,13.2526
2023-04-26T12:40:09.584Z,13.1156
2023-04-26T12:41:10.260Z,13.2811
2023-04-26T12:42:10.966Z,13.2881
2023-04-26T12:43:11.744Z,13.1547
2023-04-26T12:44:12.458Z,13.3592
2023-04-26T12:45:12.964Z,13.2050
2023-04-26T12:46:13.919Z,13.2736
2023-04-26T12:47:14.850Z,13.3218
2023-04-26T12:48:15.975Z,13.1937
2023-04-26T12:49:16.136Z,13.1622
2023-04-26T12:50:18.549Z,13.0407
2023-04-26T12:51:17.049Z,13.2117
2023-04-26T12:52:17.733Z,13.3669
2023-04-26T12:53:18.570Z,13.7374
2023-04-26T12:54:19.457Z,13.8311
2023-04-26T12:55:20.152Z,13.7831
2023-04-26T12:56:20.340Z,13.6514
2023-04-26T12:57:21.186Z,13.8227
2023-04-26T12:58:21.811Z,14.1540
2023-04-26T12:59:22.434Z,14.7393
2023-04-26T13:00:23.186Z,14.8971
2023-04-26T13:01:24.055Z,15.6048
2023-04-26T13:02:25.117Z,15.8290
2023-04-26T13:03:25.973Z,15.8592
2023-04-26T13:04:26.662Z,16.1393